Terminal Aerodrome Forecast
Issued by NWS Brownsville, TX

Home | Current Version | Previous Version | Text Only | Print | Product List | Glossary On
Versions: 1 2 3 4 5 6 7 8 9 10 11 12 13 14 15 16 17 18 19 20 21 22 23 24 25 26 27 28 29 30 31 32 33 34 35 36 37 38 39 40 41 42
000
FTUS44 KBRO 161735
TAFHRL
TAF
KHRL 161735Z 1618/1718 23005KT P6SM OVC003
     FM162000 VRB04KT P6SM OVC020
     FM170300 VRB04KT 5SM BR OVC005
     FM170800 19003KT 2SM BR OVC003
      TEMPO 1709/1713 1/2SM FG VV001
     FM171600 22005KT 4SM BR OVC003
     FM171700 21007KT P6SM OVC007=

USA.gov is the U.S. government's official web portal to all federal, state and local government web resources and services.